sensor_id;sensor_type;location;lat;lon;timestamp;pressure;altitude;pressure_sealevel;temperature;humidity
20628;BME280;10473;42.734;24.258;2023-04-28T00:00:28;91976.41;;;5.81;52.31
20628;BME280;10473;42.734;24.258;2023-04-28T00:02:55;91970.38;;;5.81;52.06
20628;BME280;10473;42.734;24.258;2023-04-28T00:05:24;91960.72;;;5.73;53.40
20628;BME280;10473;42.734;24.258;2023-04-28T00:07:52;91940.38;;;5.58;52.82
20628;BME280;10473;42.734;24.258;2023-04-28T00:10:20;91949.22;;;5.65;51.71
20628;BME280;10473;42.734;24.258;2023-04-28T00:12:48;91958.41;;;5.71;52.18
20628;BME280;10473;42.734;24.258;2023-04-28T00:15:15;91966.75;;;5.73;52.67
20628;BME280;10473;42.734;24.258;2023-04-28T00:17:43;91981.31;;;5.71;52.45
20628;BME280;10473;42.734;24.258;2023-04-28T00:20:11;91972.56;;;5.67;52.16
20628;BME280;10473;42.734;24.258;2023-04-28T00:22:40;91985.78;;;5.70;52.71
20628;BME280;10473;42.734;24.258;2023-04-28T00:25:08;91985.03;;;5.82;51.92
20628;BME280;10473;42.734;24.258;2023-04-28T00:27:36;91984.78;;;5.87;52.61
20628;BME280;10473;42.734;24.258;2023-04-28T00:30:05;91985.56;;;5.75;52.64
20628;BME280;10473;42.734;24.258;2023-04-28T00:32:33;91980.44;;;5.67;52.57
20628;BME280;10473;42.734;24.258;2023-04-28T00:35:01;91993.13;;;5.77;52.46
20628;BME280;10473;42.734;24.258;2023-04-28T00:37:28;91987.00;;;5.73;52.44
20628;BME280;10473;42.734;24.258;2023-04-28T00:39:58;91993.91;;;5.65;53.03
20628;BME280;10473;42.734;24.258;2023-04-28T00:42:25;92003.03;;;5.56;53.72
20628;BME280;10473;42.734;24.258;2023-04-28T00:44:53;91997.09;;;5.59;54.23
20628;BME280;10473;42.734;24.258;2023-04-28T00:47:21;91998.53;;;5.56;53.65
20628;BME280;10473;42.734;24.258;2023-04-28T00:49:51;91985.28;;;5.53;54.20
20628;BME280;10473;42.734;24.258;2023-04-28T00:52:19;91993.16;;;5.65;53.82
20628;BME280;10473;42.734;24.258;2023-04-28T00:54:47;91989.09;;;5.67;54.56
20628;BME280;10473;42.734;24.258;2023-04-28T00:57:16;91985.09;;;5.46;54.43
20628;BME280;10473;42.734;24.258;2023-04-28T00:59:44;91984.88;;;5.51;54.70
20628;BME280;10473;42.734;24.258;2023-04-28T01:02:12;91988.81;;;5.45;54.97
20628;BME280;10473;42.734;24.258;2023-04-28T01:04:43;91984.03;;;5.35;54.78
20628;BME280;10473;42.734;24.258;2023-04-28T01:07:12;91978.78;;;5.23;55.80
20628;BME280;10473;42.734;24.258;2023-04-28T01:09:40;91974.28;;;5.11;55.01
20628;BME280;10473;42.734;24.258;2023-04-28T01:12:10;91981.09;;;5.12;56.11
20628;BME280;10473;42.734;24.258;2023-04-28T01:14:43;91990.59;;;5.05;57.45
20628;BME280;10473;42.734;24.258;2023-04-28T01:17:11;91981.75;;;5.09;56.24
20628;BME280;10473;42.734;24.258;2023-04-28T01:19:40;91982.94;;;5.00;56.83
20628;BME280;10473;42.734;24.258;2023-04-28T01:22:08;91987.31;;;4.96;55.94
20628;BME280;10473;42.734;24.258;2023-04-28T01:24:40;91986.00;;;4.90;56.12
20628;BME280;10473;42.734;24.258;2023-04-28T01:27:09;91980.75;;;4.90;57.27
20628;BME280;10473;42.734;24.258;2023-04-28T01:29:38;91986.00;;;5.02;56.76
20628;BME280;10473;42.734;24.258;2023-04-28T01:32:06;91986.66;;;4.99;57.52
20628;BME280;10473;42.734;24.258;2023-04-28T01:34:34;91981.41;;;4.99;56.75
20628;BME280;10473;42.734;24.258;2023-04-28T01:37:05;91993.22;;;4.93;58.23
20628;BME280;10473;42.734;24.258;2023-04-28T01:39:36;91988.84;;;4.97;58.20
20628;BME280;10473;42.734;24.258;2023-04-28T01:42:05;91986.34;;;4.88;58.39
20628;BME280;10473;42.734;24.258;2023-04-28T01:44:33;91976.69;;;4.92;57.68
20628;BME280;10473;42.734;24.258;2023-04-28T01:47:01;91981.84;;;4.89;58.03
20628;BME280;10473;42.734;24.258;2023-04-28T01:49:28;91986.66;;;4.99;58.61
20628;BME280;10473;42.734;24.258;2023-04-28T01:51:56;91982.06;;;4.96;58.43
20628;BME280;10473;42.734;24.258;2023-04-28T01:54:24;91975.59;;;4.81;59.00
20628;BME280;10473;42.734;24.258;2023-04-28T01:56:52;91985.31;;;4.69;57.83
20628;BME280;10473;42.734;24.258;2023-04-28T01:59:22;91976.13;;;4.75;57.96
20628;BME280;10473;42.734;24.258;2023-04-28T02:01:50;91982.38;;;4.70;57.78
20628;BME280;10473;42.734;24.258;2023-04-28T02:04:18;91980.44;;;4.79;56.96
20628;BME280;10473;42.734;24.258;2023-04-28T02:06:45;91980.97;;;4.73;57.68
20628;BME280;10473;42.734;24.258;2023-04-28T02:09:13;91980.22;;;4.84;56.36
20628;BME280;10473;42.734;24.258;2023-04-28T02:11:41;91984.91;;;4.79;57.45
20628;BME280;10473;42.734;24.258;2023-04-28T02:14:08;91993.00;;;4.86;57.87
20628;BME280;10473;42.734;24.258;2023-04-28T02:16:38;91979.53;;;4.87;57.00
20628;BME280;10473;42.734;24.258;2023-04-28T02:19:05;91993.66;;;4.95;56.87
20628;BME280;10473;42.734;24.258;2023-04-28T02:21:34;91974.63;;;4.74;57.97
20628;BME280;10473;42.734;24.258;2023-04-28T02:24:01;91986.88;;;4.82;58.06
20628;BME280;10473;42.734;24.258;2023-04-28T02:26:32;91985.09;;;4.74;57.71
20628;BME280;10473;42.734;24.258;2023-04-28T02:29:00;91991.66;;;4.80;58.10
20628;BME280;10473;42.734;24.258;2023-04-28T02:31:32;91989.72;;;4.77;57.84
20628;BME280;10473;42.734;24.258;2023-04-28T02:34:01;91990.03;;;4.87;57.12
20628;BME280;10473;42.734;24.258;2023-04-28T02:36:28;91981.38;;;4.75;56.80
20628;BME280;10473;42.734;24.258;2023-04-28T02:38:57;91989.72;;;4.77;56.48
20628;BME280;10473;42.734;24.258;2023-04-28T02:41:26;91993.94;;;4.45;57.81
20628;BME280;10473;42.734;24.258;2023-04-28T02:43:56;91992.16;;;4.37;58.75
20628;BME280;10473;42.734;24.258;2023-04-28T02:46:24;92001.47;;;4.47;58.00
20628;BME280;10473;42.734;24.258;2023-04-28T02:48:52;92003.63;;;4.45;58.33
20628;BME280;10473;42.734;24.258;2023-04-28T02:51:21;91997.22;;;4.54;58.16
20628;BME280;10473;42.734;24.258;2023-04-28T02:53:49;91995.97;;;4.40;59.19
20628;BME280;10473;42.734;24.258;2023-04-28T02:56:17;91977.53;;;4.04;59.46
20628;BME280;10473;42.734;24.258;2023-04-28T02:58:44;91991.63;;;3.58;61.32
20628;BME280;10473;42.734;24.258;2023-04-28T03:01:12;91997.63;;;3.79;61.04
20628;BME280;10473;42.734;24.258;2023-04-28T03:03:40;92003.56;;;3.88;61.47
20628;BME280;10473;42.734;24.258;2023-04-28T03:06:08;92004.19;;;4.06;60.47
20628;BME280;10473;42.734;24.258;2023-04-28T03:08:37;91984.00;;;3.86;61.59
20628;BME280;10473;42.734;24.258;2023-04-28T03:11:05;92012.94;;;4.10;61.34
20628;BME280;10473;42.734;24.258;2023-04-28T03:13:33;92013.59;;;4.07;60.82
20628;BME280;10473;42.734;24.258;2023-04-28T03:16:01;91998.28;;;3.97;61.16
20628;BME280;10473;42.734;24.258;2023-04-28T03:18:29;92023.81;;;4.00;60.94
20628;BME280;10473;42.734;24.258;2023-04-28T03:20:57;92014.22;;;4.04;60.54
20628;BME280;10473;42.734;24.258;2023-04-28T03:23:26;92026.69;;;4.07;60.67
20628;BME280;10473;42.734;24.258;2023-04-28T03:25:55;92016.03;;;3.71;61.02
20628;BME280;10473;42.734;24.258;2023-04-28T03:28:24;92027.53;;;3.78;61.80
20628;BME280;10473;42.734;24.258;2023-04-28T03:30:52;92031.69;;;3.79;61.38
20628;BME280;10473;42.734;24.258;2023-04-28T03:33:20;92038.78;;;3.79;61.34
20628;BME280;10473;42.734;24.258;2023-04-28T03:35:48;92046.66;;;3.79;61.30
20628;BME280;10473;42.734;24.258;2023-04-28T03:38:17;92042.78;;;3.56;62.13
20628;BME280;10473;42.734;24.258;2023-04-28T03:40:45;92045.56;;;3.80;61.36
20628;BME280;10473;42.734;24.258;2023-04-28T03:43:23;92050.03;;;3.79;62.06
20628;BME280;10473;42.734;24.258;2023-04-28T03:46:16;92059.88;;;3.82;61.77
20628;BME280;10473;42.734;24.258;2023-04-28T03:48:44;92050.81;;;3.80;60.97
20628;BME280;10473;42.734;24.258;2023-04-28T03:51:12;92058.03;;;3.83;60.55
20628;BME280;10473;42.734;24.258;2023-04-28T03:53:41;92061.66;;;3.70;62.19
20628;BME280;10473;42.734;24.258;2023-04-28T03:56:08;92067.16;;;3.77;62.19
20628;BME280;10473;42.734;24.258;2023-04-28T03:58:39;92066.53;;;3.80;61.99
20628;BME280;10473;42.734;24.258;2023-04-28T04:01:07;92080.56;;;3.96;61.17
20628;BME280;10473;42.734;24.258;2023-04-28T04:03:35;92085.81;;;3.96;61.85
20628;BME280;10473;42.734;24.258;2023-04-28T04:06:04;92081.47;;;4.00;60.66
20628;BME280;10473;42.734;24.258;2023-04-28T04:08:32;92082.25;;;4.00;61.98
20628;BME280;10473;42.734;24.258;2023-04-28T04:11:00;92083.59;;;4.06;61.52
20628;BME280;10473;42.734;24.258;2023-04-28T04:13:27;92084.75;;;3.97;62.61
20628;BME280;10473;42.734;24.258;2023-04-28T04:15:59;92092.47;;;4.14;61.49
20628;BME280;10473;42.734;24.258;2023-04-28T04:18:29;92090.56;;;4.23;61.69
20628;BME280;10473;42.734;24.258;2023-04-28T04:21:15;92094.53;;;4.41;60.51
20628;BME280;10473;42.734;24.258;2023-04-28T04:23:44;92072.63;;;4.25;61.28
20628;BME280;10473;42.734;24.258;2023-04-28T04:26:12;92087.06;;;4.51;61.10
20628;BME280;10473;42.734;24.258;2023-04-28T04:28:40;92102.06;;;4.63;60.23
20628;BME280;10473;42.734;24.258;2023-04-28T04:31:10;92104.66;;;4.83;61.03
20628;BME280;10473;42.734;24.258;2023-04-28T04:33:39;92105.03;;;5.18;60.40
20628;BME280;10473;42.734;24.258;2023-04-28T04:36:07;92112.31;;;5.45;58.98
20628;BME280;10473;42.734;24.258;2023-04-28T04:38:35;92116.78;;;5.68;58.32
20628;BME280;10473;42.734;24.258;2023-04-28T04:41:16;92102.31;;;5.98;58.27
20628;BME280;10473;42.734;24.258;2023-04-28T04:43:46;92114.91;;;6.44;56.58
20628;BME280;10473;42.734;24.258;2023-04-28T04:46:16;92115.38;;;6.74;55.47
20628;BME280;10473;42.734;24.258;2023-04-28T04:48:44;92134.22;;;7.19;55.09
20628;BME280;10473;42.734;24.258;2023-04-28T04:51:11;92140.31;;;7.50;51.45
20628;BME280;10473;42.734;24.258;2023-04-28T04:53:39;92141.13;;;7.85;50.54
20628;BME280;10473;42.734;24.258;2023-04-28T04:56:07;92142.13;;;8.12;49.88
20628;BME280;10473;42.734;24.258;2023-04-28T04:58:36;92135.94;;;8.39;49.59
20628;BME280;10473;42.734;24.258;2023-04-28T05:01:23;92146.97;;;8.79;48.48
20628;BME280;10473;42.734;24.258;2023-04-28T05:03:52;92150.72;;;9.16;47.31
20628;BME280;10473;42.734;24.258;2023-04-28T05:06:20;92142.75;;;9.35;47.32
20628;BME280;10473;42.734;24.258;2023-04-28T05:08:48;92147.84;;;9.66;46.95
20628;BME280;10473;42.734;24.258;2023-04-28T05:11:16;92158.75;;;9.87;44.10
20628;BME280;10473;42.734;24.258;2023-04-28T05:13:45;92152.16;;;10.00;44.36
20628;BME280;10473;42.734;24.258;2023-04-28T05:16:13;92140.63;;;10.08;44.49
20628;BME280;10473;42.734;24.258;2023-04-28T05:18:54;92148.88;;;10.29;45.38
20628;BME280;10473;42.734;24.258;2023-04-28T05:21:22;92152.84;;;10.42;43.95
20628;BME280;10473;42.734;24.258;2023-04-28T05:23:50;92146.38;;;10.69;42.68
20628;BME280;10473;42.734;24.258;2023-04-28T05:26:19;92148.72;;;10.74;43.27
20628;BME280;10473;42.734;24.258;2023-04-28T05:28:46;92151.28;;;10.96;42.15
20628;BME280;10473;42.734;24.258;2023-04-28T05:31:15;92156.69;;;11.03;41.79
20628;BME280;10473;42.734;24.258;2023-04-28T05:33:42;92158.06;;;10.94;41.96
20628;BME280;10473;42.734;24.258;2023-04-28T05:36:12;92149.81;;;11.32;41.04
20628;BME280;10473;42.734;24.258;2023-04-28T05:38:42;92153.13;;;11.25;41.78
20628;BME280;10473;42.734;24.258;2023-04-28T05:41:10;92158.00;;;11.56;41.66
20628;BME280;10473;42.734;24.258;2023-04-28T05:43:40;92149.28;;;11.52;41.16
20628;BME280;10473;42.734;24.258;2023-04-28T05:46:08;92143.09;;;11.81;39.54
20628;BME280;10473;42.734;24.258;2023-04-28T05:48:36;92144.16;;;12.13;39.45
20628;BME280;10473;42.734;24.258;2023-04-28T05:51:04;92154.78;;;12.13;39.85
20628;BME280;10473;42.734;24.258;2023-04-28T05:53:33;92160.59;;;12.33;39.40
20628;BME280;10473;42.734;24.258;2023-04-28T05:56:01;92158.06;;;12.47;39.08
20628;BME280;10473;42.734;24.258;2023-04-28T05:58:29;92162.28;;;12.55;39.28
20628;BME280;10473;42.734;24.258;2023-04-28T06:00:57;92165.00;;;12.65;40.22
20628;BME280;10473;42.734;24.258;2023-04-28T06:03:25;92164.38;;;12.86;40.18
20628;BME280;10473;42.734;24.258;2023-04-28T06:05:53;92169.22;;;12.73;39.86
20628;BME280;10473;42.734;24.258;2023-04-28T06:08:20;92165.50;;;12.85;39.36
20628;BME280;10473;42.734;24.258;2023-04-28T06:10:50;92175.00;;;12.89;39.30
20628;BME280;10473;42.734;24.258;2023-04-28T06:13:19;92169.75;;;12.93;40.98
20628;BME280;10473;42.734;24.258;2023-04-28T06:15:47;92167.59;;;13.16;38.78
20628;BME280;10473;42.734;24.258;2023-04-28T06:18:15;92163.88;;;13.41;40.54
20628;BME280;10473;42.734;24.258;2023-04-28T06:20:43;92166.22;;;13.64;38.43
20628;BME280;10473;42.734;24.258;2023-04-28T06:23:10;92167.00;;;13.78;37.61
20628;BME280;10473;42.734;24.258;2023-04-28T06:25:43;92157.94;;;14.00;38.25
20628;BME280;10473;42.734;24.258;2023-04-28T06:28:12;92157.91;;;13.90;38.07
20628;BME280;10473;42.734;24.258;2023-04-28T06:30:40;92168.63;;;14.25;38.25
20628;BME280;10473;42.734;24.258;2023-04-28T06:33:08;92171.69;;;14.34;37.44
20628;BME280;10473;42.734;24.258;2023-04-28T06:35:36;92149.59;;;14.30;35.89
20628;BME280;10473;42.734;24.258;2023-04-28T06:38:05;92162.53;;;14.52;36.22
20628;BME280;10473;42.734;24.258;2023-04-28T06:40:33;92176.25;;;14.44;36.60
20628;BME280;10473;42.734;24.258;2023-04-28T06:43:02;92170.91;;;14.30;36.79
20628;BME280;10473;42.734;24.258;2023-04-28T06:45:39;92170.16;;;14.54;35.40
20628;BME280;10473;42.734;24.258;2023-04-28T06:48:08;92170.16;;;14.33;36.33
20628;BME280;10473;42.734;24.258;2023-04-28T06:50:38;92165.53;;;13.84;37.42
20628;BME280;10473;42.734;24.258;2023-04-28T06:53:06;92172.34;;;13.64;38.05
20628;BME280;10473;42.734;24.258;2023-04-28T06:55:34;92161.72;;;13.92;38.55
20628;BME280;10473;42.734;24.258;2023-04-28T06:58:02;92170.88;;;14.02;37.75
20628;BME280;10473;42.734;24.258;2023-04-28T07:00:29;92170.84;;;13.88;38.17
20628;BME280;10473;42.734;24.258;2023-04-28T07:02:58;92170.09;;;13.87;38.26
20628;BME280;10473;42.734;24.258;2023-04-28T07:05:26;92176.59;;;14.07;38.29
20628;BME280;10473;42.734;24.258;2023-04-28T07:07:54;92177.75;;;14.13;38.43
20628;BME280;10473;42.734;24.258;2023-04-28T07:10:22;92175.06;;;14.03;39.13
20628;BME280;10473;42.734;24.258;2023-04-28T07:12:50;92161.00;;;14.09;37.78
20628;BME280;10473;42.734;24.258;2023-04-28T07:15:18;92176.25;;;14.44;37.64
20628;BME280;10473;42.734;24.258;2023-04-28T07:17:46;92159.13;;;14.38;38.17
20628;BME280;10473;42.734;24.258;2023-04-28T07:20:15;92167.06;;;14.10;38.60
20628;BME280;10473;42.734;24.258;2023-04-28T07:22:42;92176.25;;;14.47;38.83
20628;BME280;10473;42.734;24.258;2023-04-28T07:25:10;92172.44;;;14.59;36.10
20628;BME280;10473;42.734;24.258;2023-04-28T07:27:38;92180.81;;;14.54;35.57
20628;BME280;10473;42.734;24.258;2023-04-28T07:30:07;92170.13;;;14.57;36.52
20628;BME280;10473;42.734;24.258;2023-04-28T07:32:34;92164.75;;;14.89;35.45
20628;BME280;10473;42.734;24.258;2023-04-28T07:35:02;92159.84;;;14.77;36.34
20628;BME280;10473;42.734;24.258;2023-04-28T07:37:32;92159.41;;;14.99;34.65
20628;BME280;10473;42.734;24.258;2023-04-28T07:39:59;92169.22;;;15.34;36.23
20628;BME280;10473;42.734;24.258;2023-04-28T07:42:27;92163.88;;;15.41;36.25
20628;BME280;10473;42.734;24.258;2023-04-28T07:44:55;92168.34;;;15.68;35.30
20628;BME280;10473;42.734;24.258;2023-04-28T07:47:23;92162.22;;;15.68;35.13
20628;BME280;10473;42.734;24.258;2023-04-28T07:49:51;92156.56;;;15.59;35.42
20628;BME280;10473;42.734;24.258;2023-04-28T07:52:19;92155.75;;;15.65;35.09
20628;BME280;10473;42.734;24.258;2023-04-28T07:54:49;92156.25;;;15.32;34.34
20628;BME280;10473;42.734;24.258;2023-04-28T07:57:16;92157.78;;;15.44;34.25
20628;BME280;10473;42.734;24.258;2023-04-28T07:59:44;92147.91;;;15.20;34.12
20628;BME280;10473;42.734;24.258;2023-04-28T08:02:12;92157.06;;;15.19;35.22
20628;BME280;10473;42.734;24.258;2023-04-28T08:04:40;92144.81;;;15.32;34.70
20628;BME280;10473;42.734;24.258;2023-04-28T08:07:08;92155.50;;;15.39;34.71
20628;BME280;10473;42.734;24.258;2023-04-28T08:09:36;92152.34;;;15.58;33.89
20628;BME280;10473;42.734;24.258;2023-04-28T08:12:05;92149.66;;;15.65;33.40
20628;BME280;10473;42.734;24.258;2023-04-28T08:14:32;92149.69;;;15.58;34.49
20628;BME280;10473;42.734;24.258;2023-04-28T08:17:00;92153.06;;;15.69;35.92
20628;BME280;10473;42.734;24.258;2023-04-28T08:19:28;92149.28;;;15.63;34.71
20628;BME280;10473;42.734;24.258;2023-04-28T08:21:56;92151.56;;;15.64;32.80
20628;BME280;10473;42.734;24.258;2023-04-28T08:24:25;92151.63;;;15.54;32.62
20628;BME280;10473;42.734;24.258;2023-04-28T08:26:55;92147.88;;;15.34;33.02
20628;BME280;10473;42.734;24.258;2023-04-28T08:29:24;92145.63;;;15.22;34.17
20628;BME280;10473;42.734;24.258;2023-04-28T08:31:52;92147.53;;;15.18;32.22
20628;BME280;10473;42.734;24.258;2023-04-28T08:34:19;92140.75;;;14.85;33.26
20628;BME280;10473;42.734;24.258;2023-04-28T08:36:47;92133.88;;;14.91;34.18
20628;BME280;10473;42.734;24.258;2023-04-28T08:39:15;92139.13;;;15.23;35.81
20628;BME280;10473;42.734;24.258;2023-04-28T08:41:43;92131.44;;;15.46;36.89
20628;BME280;10473;42.734;24.258;2023-04-28T08:44:12;92123.66;;;15.72;32.34
20628;BME280;10473;42.734;24.258;2023-04-28T08:46:43;92138.50;;;15.84;32.60
20628;BME280;10473;42.734;24.258;2023-04-28T08:49:13;92129.25;;;15.92;30.87
20628;BME280;10473;42.734;24.258;2023-04-28T08:51:45;92112.88;;;15.90;32.20
20628;BME280;10473;42.734;24.258;2023-04-28T08:54:16;92133.59;;;16.26;32.76
20628;BME280;10473;42.734;24.258;2023-04-28T08:56:45;92130.84;;;16.37;31.66
20628;BME280;10473;42.734;24.258;2023-04-28T08:59:13;92123.19;;;16.39;29.93
20628;BME280;10473;42.734;24.258;2023-04-28T09:01:47;92123.03;;;16.60;29.77
20628;BME280;10473;42.734;24.258;2023-04-28T09:04:15;92124.84;;;16.70;30.45
20628;BME280;10473;42.734;24.258;2023-04-28T09:06:43;92131.31;;;16.25;30.73
20628;BME280;10473;42.734;24.258;2023-04-28T09:09:20;92130.06;;;16.84;33.38
20628;BME280;10473;42.734;24.258;2023-04-28T09:11:54;92120.78;;;16.95;32.38
20628;BME280;10473;42.734;24.258;2023-04-28T09:14:27;92116.13;;;16.15;31.48
20628;BME280;10473;42.734;24.258;2023-04-28T09:16:56;92114.19;;;16.66;30.93
20628;BME280;10473;42.734;24.258;2023-04-28T09:19:32;92122.97;;;17.04;29.57
20628;BME280;10473;42.734;24.258;2023-04-28T09:22:01;92121.50;;;16.99;29.21
20628;BME280;10473;42.734;24.258;2023-04-28T09:24:30;92123.03;;;16.60;29.88
20628;BME280;10473;42.734;24.258;2023-04-28T09:27:00;92113.44;;;17.03;31.01
20628;BME280;10473;42.734;24.258;2023-04-28T09:29:28;92119.81;;;17.12;30.96
20628;BME280;10473;42.734;24.258;2023-04-28T09:32:16;92115.56;;;17.15;29.52
20628;BME280;10473;42.734;24.258;2023-04-28T09:34:44;92104.25;;;16.67;30.23
20628;BME280;10473;42.734;24.258;2023-04-28T09:37:16;92122.25;;;17.00;32.51
20628;BME280;10473;42.734;24.258;2023-04-28T09:39:46;92112.78;;;17.25;31.52
20628;BME280;10473;42.734;24.258;2023-04-28T09:42:31;92121.63;;;17.56;29.47
20628;BME280;10473;42.734;24.258;2023-04-28T09:45:00;92122.59;;;17.69;30.66
20628;BME280;10473;42.734;24.258;2023-04-28T09:47:30;92121.16;;;17.91;30.95
20628;BME280;10473;42.734;24.258;2023-04-28T09:50:00;92103.75;;;17.76;29.20
20628;BME280;10473;42.734;24.258;2023-04-28T09:52:28;92118.56;;;17.84;29.25
20628;BME280;10473;42.734;24.258;2023-04-28T09:54:56;92109.13;;;17.72;29.73
20628;BME280;10473;42.734;24.258;2023-04-28T09:57:24;92111.81;;;17.46;31.30
20628;BME280;10473;42.734;24.258;2023-04-28T09:59:56;92092.38;;;17.35;31.01
20628;BME280;10473;42.734;24.258;2023-04-28T10:02:26;92093.50;;;17.41;30.64
20628;BME280;10473;42.734;24.258;2023-04-28T10:04:55;92097.53;;;17.56;31.80
20628;BME280;10473;42.734;24.258;2023-04-28T10:07:23;92106.84;;;17.74;30.13
20628;BME280;10473;42.734;24.258;2023-04-28T10:09:51;92098.38;;;17.49;30.41
20628;BME280;10473;42.734;24.258;2023-04-28T10:12:20;92099.84;;;17.20;30.27
20628;BME280;10473;42.734;24.258;2023-04-28T10:14:50;92090.72;;;17.14;30.76
20628;BME280;10473;42.734;24.258;2023-04-28T10:17:20;92105.47;;;16.96;31.91
20628;BME280;10473;42.734;24.258;2023-04-28T10:19:52;92105.53;;;16.89;32.77
20628;BME280;10473;42.734;24.258;2023-04-28T10:22:34;92094.09;;;16.48;32.15
20628;BME280;10473;42.734;24.258;2023-04-28T10:25:19;92081.44;;;16.55;32.20
20628;BME280;10473;42.734;24.258;2023-04-28T10:27:52;92101.13;;;16.72;33.30
20628;BME280;10473;42.734;24.258;2023-04-28T10:30:21;92093.84;;;16.28;32.92
20628;BME280;10473;42.734;24.258;2023-04-28T10:33:21;92092.09;;;16.59;32.35
20628;BME280;10473;42.734;24.258;2023-04-28T10:35:49;92090.50;;;17.02;32.06
20628;BME280;10473;42.734;24.258;2023-04-28T10:38:19;92092.72;;;17.07;32.15
20628;BME280;10473;42.734;24.258;2023-04-28T10:40:47;92078.63;;;17.03;31.45
20628;BME280;10473;42.734;24.258;2023-04-28T10:43:34;92084.03;;;16.96;32.10
20628;BME280;10473;42.734;24.258;2023-04-28T10:46:04;92076.09;;;16.89;32.42
20628;BME280;10473;42.734;24.258;2023-04-28T10:49:05;92080.31;;;17.20;32.18
20628;BME280;10473;42.734;24.258;2023-04-28T10:51:34;92080.56;;;17.32;32.35
20628;BME280;10473;42.734;24.258;2023-04-28T10:54:16;92087.91;;;17.25;32.35
20628;BME280;10473;42.734;24.258;2023-04-28T10:57:18;92082.34;;;17.46;31.71
20628;BME280;10473;42.734;24.258;2023-04-28T10:59:47;92096.25;;;17.64;31.64
20628;BME280;10473;42.734;24.258;2023-04-28T11:02:38;92093.50;;;17.71;31.66
20628;BME280;10473;42.734;24.258;2023-04-28T11:05:13;92089.97;;;17.74;30.54
20628;BME280;10473;42.734;24.258;2023-04-28T11:11:19;92079.41;;;17.90;32.53
20628;BME280;10473;42.734;24.258;2023-04-28T11:13:48;92084.38;;;17.91;33.13
20628;BME280;10473;42.734;24.258;2023-04-28T11:16:21;92094.03;;;17.85;31.63
20628;BME280;10473;42.734;24.258;2023-04-28T11:18:57;92081.03;;;17.84;32.37
20628;BME280;10473;42.734;24.258;2023-04-28T11:21:29;92081.00;;;17.61;32.27
20628;BME280;10473;42.734;24.258;2023-04-28T11:23:57;92076.38;;;17.61;32.25
20628;BME280;10473;42.734;24.258;2023-04-28T11:26:27;92082.41;;;17.39;31.52
20628;BME280;10473;42.734;24.258;2023-04-28T11:28:56;92074.66;;;16.81;31.68
20628;BME280;10473;42.734;24.258;2023-04-28T11:31:25;92080.19;;;17.00;31.58
20628;BME280;10473;42.734;24.258;2023-04-28T11:33:59;92076.81;;;16.93;31.58
20628;BME280;10473;42.734;24.258;2023-04-28T11:36:30;92070.94;;;17.05;32.65
20628;BME280;10473;42.734;24.258;2023-04-28T11:38:59;92067.53;;;17.04;32.17
20628;BME280;10473;42.734;24.258;2023-04-28T11:41:28;92070.44;;;17.13;31.61
20628;BME280;10473;42.734;24.258;2023-04-28T11:43:55;92067.19;;;16.99;31.47
20628;BME280;10473;42.734;24.258;2023-04-28T11:46:24;92069.38;;;17.07;34.94
20628;BME280;10473;42.734;24.258;2023-04-28T11:49:03;92061.41;;;17.04;32.42
20628;BME280;10473;42.734;24.258;2023-04-28T11:51:33;92066.03;;;17.00;32.68
20628;BME280;10473;42.734;24.258;2023-04-28T11:54:03;92059.59;;;16.94;30.59
20628;BME280;10473;42.734;24.258;2023-04-28T11:56:37;92061.41;;;16.70;30.81
20628;BME280;10473;42.734;24.258;2023-04-28T11:59:07;92058.34;;;16.68;32.49
20628;BME280;10473;42.734;24.258;2023-04-28T12:01:44;92051.19;;;16.58;31.92
20628;BME280;10473;42.734;24.258;2023-04-28T12:04:13;92044.53;;;16.73;33.71
20628;BME280;10473;42.734;24.258;2023-04-28T12:06:41;92051.72;;;16.80;32.52
20628;BME280;10473;42.734;24.258;2023-04-28T12:09:16;92048.03;;;16.70;33.53
20628;BME280;10473;42.734;24.258;2023-04-28T12:12:08;92026.16;;;16.75;33.09
20628;BME280;10473;42.734;24.258;2023-04-28T12:14:54;92041.31;;;16.89;30.70
20628;BME280;10473;42.734;24.258;2023-04-28T12:17:23;92048.22;;;16.86;30.77
20628;BME280;10473;42.734;24.258;2023-04-28T12:19:51;92034.88;;;16.83;31.02
20628;BME280;10473;42.734;24.258;2023-04-28T12:22:19;92037.13;;;16.88;32.47
20628;BME280;10473;42.734;24.258;2023-04-28T12:25:02;92038.66;;;16.85;30.74
20628;BME280;10473;42.734;24.258;2023-04-28T12:27:31;92020.25;;;16.57;31.28
20628;BME280;10473;42.734;24.258;2023-04-28T12:29:59;92035.22;;;16.51;34.03
20628;BME280;10473;42.734;24.258;2023-04-28T12:32:40;92027.19;;;16.51;32.59
20628;BME280;10473;42.734;24.258;2023-04-28T12:35:08;92031.81;;;16.47;32.03
20628;BME280;10473;42.734;24.258;2023-04-28T12:37:36;92027.88;;;16.59;32.11
20628;BME280;10473;42.734;24.258;2023-04-28T12:40:06;92011.19;;;16.48;31.20
20628;BME280;10473;42.734;24.258;2023-04-28T12:42:35;92008.94;;;16.43;31.36
20628;BME280;10473;42.734;24.258;2023-04-28T12:45:05;92028.84;;;16.35;31.40
20628;BME280;10473;42.734;24.258;2023-04-28T12:47:34;92019.38;;;16.27;32.63
20628;BME280;10473;42.734;24.258;2023-04-28T12:50:02;92020.09;;;16.31;32.09
20628;BME280;10473;42.734;24.258;2023-04-28T12:52:29;92017.13;;;16.25;32.34
20628;BME280;10473;42.734;24.258;2023-04-28T12:54:59;92014.13;;;16.16;32.33
20628;BME280;10473;42.734;24.258;2023-04-28T12:57:26;92011.84;;;16.15;32.16
20628;BME280;10473;42.734;24.258;2023-04-28T12:59:56;92006.38;;;15.88;31.84
20628;BME280;10473;42.734;24.258;2023-04-28T13:02:23;92010.22;;;15.84;31.70
20628;BME280;10473;42.734;24.258;2023-04-28T13:04:51;91999.59;;;15.77;32.08
20628;BME280;10473;42.734;24.258;2023-04-28T13:07:19;92013.25;;;15.86;34.62
20628;BME280;10473;42.734;24.258;2023-04-28T13:09:47;92009.41;;;15.87;32.91
20628;BME280;10473;42.734;24.258;2023-04-28T13:12:15;92004.59;;;15.68;32.51